Terminal Aerodrome Forecast
Issued by NWS

Home | Current Version | Previous Version | Text Only | Print | Product List | Glossary On
Versions: 1 2 3 4 5 6 7 8 9 10 11 12 13 14
000
FTUS44 KLUB 251729
TAFCDS
TAF
KCDS 251729Z 2518/2618 18008KT P6SM SCT050 BKN150
     FM252100 17010KT P6SM BKN050 OVC150
      TEMPO 2521/2601 TSRA BKN050CB
     FM260100 12009KT P6SM BKN050 OVC150
      TEMPO 2601/2605 TSRA BKN050CB
     FM260500 07009KT P6SM BKN050 PROB30 2605/2609 -TSRA BKN040CB=

USA.gov is the U.S. government's official web portal to all federal, state and local government web resources and services.